Time;durP1;ratioP1;P1;durP2;ratioP2;P2;SDS_P1;SDS_P2;PMS_P1;PMS_P2;Temp;Humidity;BMP_temperature;BMP_pressure;BME280_temperature;BME280_humidity;BME280_pressure;Samples;Min_cycle;Max_cycle;Signal;HPM_P1;HPM_P2
2022/08/21 00:00:53;;;;;;;13.40;8.05;;;;;;;19.10;100.00;96135.55;1713745;82;20965;-85
2022/08/21 00:03:19;;;;;;;15.70;8.25;;;;;;;19.11;100.00;96141.09;1703587;83;21008;-85
2022/08/21 00:05:49;;;;;;;13.08;7.92;;;;;;;19.11;100.00;96138.47;1724356;82;20952;-85
2022/08/21 00:08:19;;;;;;;13.28;8.38;;;;;;;19.13;100.00;96136.39;1758813;82;20988;-85
2022/08/21 00:10:45;;;;;;;11.65;7.87;;;;;;;19.15;100.00;96132.19;1754836;80;20956;-85
2022/08/21 00:13:11;;;;;;;11.30;7.87;;;;;;;19.17;100.00;96128.80;1745841;80;20991;-86
2022/08/21 00:15:37;;;;;;;12.70;7.47;;;;;;;19.19;100.00;96119.61;1757768;80;21350;-85
2022/08/21 00:18:05;;;;;;;13.65;7.90;;;;;;;19.21;100.00;96124.66;1757961;82;20976;-85
2022/08/21 00:20:30;;;;;;;22.87;8.40;;;;;;;19.17;100.00;96119.05;1726169;82;21011;-85
2022/08/21 00:22:56;;;;;;;14.60;7.95;;;;;;;19.17;100.00;96119.05;1758636;80;20956;-85
2022/08/21 00:25:22;;;;;;;11.70;7.97;;;;;;;19.19;100.00;96118.29;1757889;80;21023;-85
2022/08/21 00:27:48;;;;;;;9.83;8.65;;;;;;;19.20;100.00;96111.22;1756631;82;21322;-85
2022/08/21 00:30:16;;;;;;;14.73;8.78;;;;;;;19.22;100.00;96109.66;1757348;80;20912;-85
2022/08/21 00:32:42;;;;;;;12.95;9.25;;;;;;;19.21;100.00;96108.06;1757314;80;20936;-85
2022/08/21 00:35:12;;;;;;;10.82;8.28;;;;;;;19.18;100.00;96100.09;1756494;82;21075;-85
2022/08/21 00:37:39;;;;;;;15.40;8.95;;;;;;;19.16;100.00;96105.61;1756260;82;20956;-84
2022/08/21 00:40:06;;;;;;;12.60;8.50;;;;;;;19.15;100.00;96105.33;1759892;80;21399;-84
2022/08/21 00:42:32;;;;;;;8.65;7.75;;;;;;;19.16;100.00;96102.18;1753886;80;20928;-84
2022/08/21 00:44:58;;;;;;;9.60;7.53;;;;;;;19.17;100.00;96094.55;1757310;80;21050;-84
2022/08/21 00:47:25;;;;;;;15.48;8.50;;;;;;;19.19;100.00;96084.05;1717016;82;21111;-84
2022/08/21 00:49:50;;;;;;;13.98;7.58;;;;;;;19.22;100.00;96084.63;1755072;80;21011;-84
2022/08/21 00:52:21;;;;;;;11.55;7.15;;;;;;;19.23;100.00;96080.95;1756673;80;21354;-84
2022/08/21 00:54:48;;;;;;;11.83;6.92;;;;;;;19.27;100.00;96082.05;1757403;80;21050;-84
2022/08/21 00:57:19;;;;;;;8.68;6.03;;;;;;;19.25;100.00;96073.61;1757120;80;21027;-85
2022/08/21 00:59:48;;;;;;;7.63;5.70;;;;;;;19.27;100.00;96074.16;1749639;80;20960;-85
2022/08/21 01:02:15;;;;;;;10.80;5.87;;;;;;;19.26;100.00;96072.56;1758384;80;20932;-85
2022/08/21 01:04:42;;;;;;;8.28;5.80;;;;;;;19.26;100.00;96076.52;1728675;80;21352;-85
2022/08/21 01:07:08;;;;;;;8.18;5.00;;;;;;;19.23;100.00;96075.16;1719794;83;20972;-86
2022/08/21 01:09:34;;;;;;;9.43;5.12;;;;;;;19.23;100.00;96066.47;1725046;82;20917;-86
2022/08/21 01:12:00;;;;;;;9.40;5.08;;;;;;;19.23;100.00;96061.20;1723010;82;21529;-85
2022/08/21 01:14:25;;;;;;;7.70;5.03;;;;;;;19.20;100.00;96055.91;1722691;82;21032;-85
2022/08/21 01:16:51;;;;;;;8.48;5.47;;;;;;;19.19;100.00;96046.38;1722796;82;21012;-85
2022/08/21 01:19:18;;;;;;;9.70;5.15;;;;;;;19.20;100.00;96045.37;1722618;82;20921;-85
2022/08/21 01:21:44;;;;;;;10.15;5.80;;;;;;;19.17;100.00;96043.20;1704045;83;20992;-84
2022/08/21 01:24:10;;;;;;;10.68;6.75;;;;;;;19.15;100.00;96043.45;1723340;83;20940;-85
2022/08/21 01:26:36;;;;;;;8.40;6.45;;;;;;;19.16;100.00;96049.51;1716959;83;20964;-85
2022/08/21 01:29:30;;;;;;;10.63;6.67;;;;;;;19.16;100.00;96054.78;1722758;82;20925;-85
2022/08/21 01:31:58;;;;;;;7.62;6.50;;;;;;;19.14;100.00;96057.66;1713025;83;20979;-85
2022/08/21 01:34:23;;;;;;;12.15;6.10;;;;;;;19.12;100.00;96049.20;1722023;82;20937;-84
2022/08/21 01:36:49;;;;;;;9.58;5.37;;;;;;;19.12;100.00;96040.51;1721094;82;21439;-84
2022/08/21 01:39:15;;;;;;;11.33;5.12;;;;;;;19.09;100.00;96036.53;1722840;82;20937;-84
2022/08/21 01:41:41;;;;;;;8.25;5.20;;;;;;;19.10;100.00;96032.85;1662718;85;21067;-84
2022/08/21 01:44:07;;;;;;;6.90;5.22;;;;;;;19.12;100.00;96031.30;1643392;85;21503;-85
2022/08/21 01:46:33;;;;;;;13.15;5.67;;;;;;;19.12;100.00;96028.66;1672383;85;21092;-85
2022/08/21 01:48:58;;;;;;;9.33;6.08;;;;;;;19.12;100.00;96018.12;1672157;85;21048;-85
2022/08/21 01:51:24;;;;;;;9.20;5.37;;;;;;;19.11;100.00;96015.22;1686835;85;21426;-84
2022/08/21 01:53:50;;;;;;;10.00;4.92;;;;;;;19.11;100.00;96010.75;1665689;85;21356;-85
2022/08/21 01:56:16;;;;;;;6.70;5.53;;;;;;;19.10;100.00;96011.78;1671279;86;21068;-85
2022/08/21 01:58:44;;;;;;;15.83;7.00;;;;;;;19.11;100.00;96008.63;1668007;85;21045;-85
2022/08/21 02:01:09;;;;;;;7.95;5.33;;;;;;;19.08;100.00;96007.29;1671076;85;20996;-84
2022/08/21 02:03:35;;;;;;;9.00;5.90;;;;;;;19.11;100.00;96001.53;1668136;85;20986;-84
2022/08/21 02:06:01;;;;;;;15.08;6.35;;;;;;;19.15;100.00;96005.26;1661336;86;21000;-85
2022/08/21 02:08:28;;;;;;;8.93;5.85;;;;;;;19.18;100.00;96000.02;1720220;82;21370;-85
2022/08/21 02:10:54;;;;;;;7.67;6.12;;;;;;;19.19;100.00;96000.30;1736628;82;21071;-85
2022/08/21 02:13:19;;;;;;;8.55;5.80;;;;;;;19.22;100.00;96004.30;1720953;82;21104;-85
2022/08/21 02:15:45;;;;;;;10.43;6.62;;;;;;;19.21;100.00;95999.55;1685544;84;21425;-85
2022/08/21 02:18:11;;;;;;;9.80;6.50;;;;;;;19.19;100.00;96001.61;1685645;84;20982;-84
2022/08/21 02:20:40;;;;;;;11.65;6.42;;;;;;;19.17;100.00;96000.54;1670130;85;21052;-85
2022/08/21 02:23:06;;;;;;;10.78;6.72;;;;;;;19.20;100.00;96003.23;1668366;85;21001;-85
2022/08/21 02:25:32;;;;;;;8.25;7.08;;;;;;;19.21;100.00;95998.76;1652084;85;20989;-85
2022/08/21 02:27:59;;;;;;;9.18;6.50;;;;;;;19.17;100.00;95991.32;1672116;85;20981;-85
2022/08/21 02:30:33;;;;;;;11.75;6.10;;;;;;;19.13;100.00;95984.16;1679432;85;20988;-84
2022/08/21 02:32:59;;;;;;;9.18;6.30;;;;;;;19.09;100.00;95979.12;1676389;85;21053;-84
2022/08/21 02:35:25;;;;;;;11.57;6.65;;;;;;;19.08;100.00;95974.89;1677506;85;21464;-85
2022/08/21 02:37:55;;;;;;;10.18;6.80;;;;;;;19.05;100.00;95972.76;1673414;85;21024;-84
2022/08/21 02:40:24;;;;;;;9.33;6.33;;;;;;;19.03;100.00;95971.66;1685792;83;21062;-85
2022/08/21 02:42:50;;;;;;;10.70;6.20;;;;;;;19.05;100.00;95978.81;1644095;86;20968;-84
2022/08/21 02:45:17;;;;;;;9.83;6.10;;;;;;;19.04;100.00;95976.44;1720970;82;20929;-84
2022/08/21 02:47:59;;;;;;;9.93;6.00;;;;;;;19.05;100.00;95978.02;1721551;82;20966;-84
2022/08/21 02:50:36;;;;;;;10.58;5.40;;;;;;;19.07;100.00;95980.69;1715499;82;20921;-85
2022/08/21 02:53:05;;;;;;;6.97;5.60;;;;;;;19.07;100.00;95985.95;1720158;82;21068;-84
2022/08/21 02:55:32;;;;;;;9.60;5.78;;;;;;;19.07;100.00;95983.31;1720120;83;20971;-85
2022/08/21 02:57:57;;;;;;;11.35;6.62;;;;;;;19.09;100.00;95987.81;1720676;82;21000;-84
2022/08/21 03:00:25;;;;;;;8.18;6.42;;;;;;;19.10;100.00;95984.14;1718746;82;21029;-84
2022/08/21 03:02:51;;;;;;;12.98;6.58;;;;;;;19.09;100.00;95984.38;1713341;82;20984;-82
2022/08/21 03:05:17;;;;;;;8.45;5.20;;;;;;;19.08;100.00;95993.33;1732354;80;21116;-84
2022/08/21 03:07:43;;;;;;;7.08;5.62;;;;;;;19.06;100.00;95995.41;1701301;83;21385;-84
2022/08/21 03:10:09;;;;;;;10.13;5.72;;;;;;;19.06;100.00;95998.84;1706074;82;20965;-83
2022/08/21 03:12:35;;;;;;;10.43;5.45;;;;;;;19.05;100.00;96002.52;1703582;83;20954;-84
2022/08/21 03:15:06;;;;;;;8.03;5.87;;;;;;;19.06;100.00;96003.31;1702742;82;21387;-83
2022/08/21 03:17:33;;;;;;;11.47;5.33;;;;;;;19.07;100.00;96007.53;1687599;83;21056;-84
2022/08/21 03:19:58;;;;;;;9.83;6.30;;;;;;;19.09;100.00;96010.72;1701710;83;21347;-84
2022/08/21 03:22:24;;;;;;;10.08;6.15;;;;;;;19.10;100.00;96014.42;1704079;83;20950;-84
2022/08/21 03:24:51;;;;;;;12.05;5.83;;;;;;;19.11;100.00;96019.16;1700412;82;20985;-84
2022/08/21 03:27:17;;;;;;;7.87;6.40;;;;;;;19.10;100.00;96023.64;1748801;80;20988;-84
2022/08/21 03:29:42;;;;;;;6.58;5.87;;;;;;;19.10;100.00;96022.32;1758619;80;20955;-85
2022/08/21 03:32:09;;;;;;;8.25;6.40;;;;;;;19.08;100.00;96018.34;1756787;81;20971;-84
2022/08/21 03:34:37;;;;;;;8.85;6.28;;;;;;;19.04;100.00;96018.04;1713475;82;21032;-84
2022/08/21 03:37:04;;;;;;;7.72;5.85;;;;;;;19.02;100.00;96014.03;1687322;83;20973;-84
2022/08/21 03:39:30;;;;;;;8.13;6.42;;;;;;;19.00;100.00;96024.81;1704471;82;21328;-87
2022/08/21 03:41:56;;;;;;;10.45;6.90;;;;;;;19.01;100.00;96025.08;1701570;83;20969;-85
2022/08/21 03:44:21;;;;;;;7.75;6.40;;;;;;;19.01;100.00;96024.29;1701699;83;20972;-87
2022/08/21 03:46:47;;;;;;;12.98;8.18;;;;;;;19.00;100.00;96020.86;1701364;83;21089;-86
2022/08/21 03:49:13;;;;;;;11.03;7.87;;;;;;;18.98;100.00;96024.26;1704976;83;21021;-87
2022/08/21 03:51:39;;;;;;;11.55;8.28;;;;;;;18.95;100.00;96029.22;1703359;82;21002;-87
2022/08/21 03:54:06;;;;;;;9.55;8.18;;;;;;;18.95;100.00;96038.44;1703615;83;21088;-85
2022/08/21 03:56:32;;;;;;;13.20;8.53;;;;;;;18.96;100.00;96033.45;1702677;82;21434;-87
2022/08/21 03:58:58;;;;;;;12.47;9.28;;;;;;;18.95;100.00;96033.97;1703311;82;20985;-87
2022/08/21 04:01:23;;;;;;;13.35;10.18;;;;;;;18.93;100.00;96027.35;1703016;83;21403;-87
2022/08/21 04:03:49;;;;;;;13.32;9.95;;;;;;;18.88;100.00;96001.77;1700865;84;20988;-87
2022/08/21 04:06:15;;;;;;;16.55;9.25;;;;;;;18.90;100.00;96002.31;1699483;83;21000;-87
2022/08/21 04:08:42;;;;;;;12.03;8.40;;;;;;;18.92;100.00;96004.18;1710966;81;21035;-87
2022/08/21 04:11:10;;;;;;;10.55;8.80;;;;;;;18.93;100.00;95999.71;1678756;84;21051;-86
2022/08/21 04:13:37;;;;;;;12.03;9.33;;;;;;;18.89;100.00;96004.67;1680220;85;21044;-87
2022/08/21 04:16:03;;;;;;;11.78;9.03;;;;;;;18.90;100.00;95999.68;1701561;83;21080;-86
2022/08/21 04:18:30;;;;;;;12.78;10.50;;;;;;;18.92;100.00;95997.59;1698336;83;21787;-86
2022/08/21 04:20:56;;;;;;;13.20;9.20;;;;;;;18.93;100.00;95989.98;1703285;83;21041;-87
2022/08/21 04:23:22;;;;;;;15.10;10.10;;;;;;;18.89;100.00;95986.25;1704413;84;20962;-88
2022/08/21 04:25:48;;;;;;;14.38;10.25;;;;;;;18.88;100.00;95982.81;1699744;83;20965;-87
2022/08/21 04:28:14;;;;;;;13.78;9.98;;;;;;;18.86;100.00;95982.23;1685771;82;21004;-87
2022/08/21 04:30:40;;;;;;;16.02;11.08;;;;;;;18.85;100.00;95984.59;1678483;84;20992;-87
2022/08/21 04:33:06;;;;;;;12.82;10.00;;;;;;;18.86;100.00;95979.61;1702804;83;20965;-87
2022/08/21 04:35:32;;;;;;;14.43;9.38;;;;;;;18.88;100.00;95989.92;1695710;84;20961;-87
2022/08/21 04:37:58;;;;;;;14.95;9.85;;;;;;;18.94;100.00;95992.88;1699080;83;21083;-88
2022/08/21 04:40:26;;;;;;;10.48;9.35;;;;;;;19.00;100.00;95988.47;1705180;83;21047;-86
2022/08/21 04:42:56;;;;;;;18.17;9.43;;;;;;;19.00;100.00;95989.27;1702786;82;20975;-86
2022/08/21 04:45:31;;;;;;;14.33;9.18;;;;;;;18.99;100.00;95991.63;1708059;83;21331;-87
2022/08/21 04:47:58;;;;;;;10.08;9.00;;;;;;;19.01;100.00;95994.02;1702122;83;21075;-87
2022/08/21 04:50:44;;;;;;;12.37;9.75;;;;;;;19.02;100.00;95996.92;1714996;82;20988;-87
2022/08/21 04:53:15;;;;;;;14.63;10.30;;;;;;;19.05;100.00;96001.20;1707325;82;21407;-87
2022/08/21 04:55:41;;;;;;;15.43;9.85;;;;;;;19.06;100.00;96009.38;1680984;84;20943;-87
2022/08/21 04:58:09;;;;;;;17.27;11.20;;;;;;;19.11;100.00;96011.27;1711005;82;21244;-87
2022/08/21 05:00:34;;;;;;;17.98;12.20;;;;;;;19.10;100.00;96010.99;1707086;82;21031;-85
2022/08/21 05:03:00;;;;;;;15.75;10.55;;;;;;;19.10;100.00;96015.73;1707552;82;21486;-86
2022/08/21 05:05:28;;;;;;;16.07;11.68;;;;;;;19.12;100.00;96019.44;1715224;81;21055;-86
2022/08/21 05:07:55;;;;;;;15.23;10.90;;;;;;;19.14;100.00;96010.77;1720439;82;20952;-86
2022/08/21 05:10:22;;;;;;;20.30;12.13;;;;;;;19.18;100.00;96006.60;1723300;81;21347;-86
2022/08/21 05:12:48;;;;;;;22.50;12.30;;;;;;;19.24;100.00;96014.06;1723766;82;20980;-86
2022/08/21 05:15:13;;;;;;;15.95;11.10;;;;;;;19.25;100.00;96023.56;1723877;82;20988;-86
2022/08/21 05:17:41;;;;;;;17.05;13.10;;;;;;;19.29;100.00;96024.13;1724289;82;21434;-86
2022/08/21 05:20:09;;;;;;;15.03;12.03;;;;;;;19.31;100.00;96021.25;1722396;81;21040;-85
2022/08/21 05:22:36;;;;;;;17.23;14.23;;;;;;;19.37;100.00;96033.46;1723746;83;21367;-87
2022/08/21 05:25:03;;;;;;;18.75;16.70;;;;;;;19.41;100.00;96038.51;1723357;82;20947;-86
2022/08/21 05:27:29;;;;;;;21.30;15.68;;;;;;;19.43;100.00;96037.73;1713453;83;20960;-86
2022/08/21 05:29:56;;;;;;;21.15;15.68;;;;;;;19.42;100.00;96040.10;1724514;81;21004;-86
2022/08/21 05:32:22;;;;;;;20.48;15.53;;;;;;;19.38;100.00;96039.00;1722699;81;21047;-85
2022/08/21 05:34:48;;;;;;;19.17;15.18;;;;;;;19.41;100.00;96043.78;1723970;82;21023;-85
2022/08/21 05:37:14;;;;;;;18.20;16.05;;;;;;;19.43;100.00;96048.28;1724063;82;21368;-85
2022/08/21 05:39:40;;;;;;;18.55;16.70;;;;;;;19.43;100.00;96042.48;1724281;81;20988;-86
2022/08/21 05:42:06;;;;;;;17.70;15.78;;;;;;;19.46;100.00;96047.78;1724046;82;21474;-85
2022/08/21 05:44:31;;;;;;;18.67;15.20;;;;;;;19.51;100.00;96050.47;1724040;82;20972;-84
2022/08/21 05:47:06;;;;;;;17.73;15.78;;;;;;;19.56;100.00;96052.42;1719906;81;21000;-84
2022/08/21 05:49:32;;;;;;;18.35;16.23;;;;;;;19.59;100.00;96050.08;1721655;82;20972;-84
2022/08/21 05:51:57;;;;;;;21.00;16.45;;;;;;;19.63;100.00;96050.38;1700808;83;20956;-82
2022/08/21 05:54:23;;;;;;;18.40;16.32;;;;;;;19.65;100.00;96047.77;1715719;83;21062;-84
2022/08/21 05:56:49;;;;;;;22.55;18.35;;;;;;;19.66;100.00;96048.56;1731283;82;21022;-83
2022/08/21 05:59:14;;;;;;;29.42;20.08;;;;;;;19.64;100.00;96048.81;1740792;82;20996;-84
2022/08/21 06:01:40;;;;;;;26.97;20.27;;;;;;;19.61;100.00;96054.58;1727271;83;20976;-85
2022/08/21 06:04:07;;;;;;;24.87;19.85;;;;;;;19.57;100.00;96060.08;1701683;82;20992;-83
2022/08/21 06:06:33;;;;;;;24.90;19.62;;;;;;;19.58;100.00;96061.67;1731741;82;20983;-85
2022/08/21 06:08:59;;;;;;;23.80;19.23;;;;;;;19.59;100.00;96067.21;1735551;80;21058;-85
2022/08/21 06:11:25;;;;;;;24.57;18.62;;;;;;;19.60;100.00;96063.53;1735841;82;20987;-84
2022/08/21 06:13:50;;;;;;;24.55;18.42;;;;;;;19.58;100.00;96062.98;1736081;81;21028;-85
2022/08/21 06:16:17;;;;;;;24.40;18.42;;;;;;;19.58;100.00;96062.98;1752067;81;21033;-84
2022/08/21 06:18:44;;;;;;;26.30;18.60;;;;;;;19.60;100.00;96062.73;1734541;80;20980;-85
2022/08/21 06:21:11;;;;;;;22.73;19.25;;;;;;;19.61;100.00;96066.44;1740551;80;20928;-84
2022/08/21 06:23:37;;;;;;;22.95;19.02;;;;;;;19.61;100.00;96070.39;1751053;82;20945;-84
2022/08/21 06:26:04;;;;;;;22.77;18.35;;;;;;;19.63;100.00;96070.14;1751731;82;21012;-83
2022/08/21 06:28:30;;;;;;;22.73;17.48;;;;;;;19.66;100.00;96070.97;1757173;80;20891;-84
2022/08/21 06:30:56;;;;;;;22.58;19.42;;;;;;;19.64;100.00;96066.47;1755597;80;21362;-84
2022/08/21 06:33:21;;;;;;;22.77;17.62;;;;;;;19.58;100.00;96070.09;1755947;82;20948;-84
2022/08/21 06:35:48;;;;;;;17.80;14.50;;;;;;;19.60;100.00;96067.48;1757472;80;21015;-84
2022/08/21 06:38:14;;;;;;;22.32;15.23;;;;;;;19.56;100.00;96069.02;1728153;80;21311;-83
2022/08/21 06:40:55;;;;;;;17.62;14.20;;;;;;;19.45;100.00;96068.06;1717829;80;21158;-81
2022/08/21 06:43:20;;;;;;;19.37;13.00;;;;;;;19.46;100.00;96069.66;1655073;84;20956;-82
2022/08/21 06:45:46;;;;;;;13.88;11.85;;;;;;;19.46;100.00;96073.61;1648705;86;20973;-82
2022/08/21 06:48:12;;;;;;;15.60;11.88;;;;;;;19.45;100.00;96072.02;1660710;86;21053;-82
2022/08/21 06:50:38;;;;;;;13.75;10.63;;;;;;;19.44;100.00;96069.11;1649151;86;21009;-83
2022/08/21 06:53:10;;;;;;;14.05;10.80;;;;;;;19.42;100.00;96073.83;1645982;87;21044;-82
2022/08/21 06:55:36;;;;;;;;;;;;;;;19.45;100.00;96072.54;1657712;86;21325;-82
2022/08/21 06:58:03;;;;;;;13.65;9.90;;;;;;;19.45;100.00;96079.12;1655482;86;20101;-82
2022/08/21 07:00:29;;;;;;;9.73;8.73;;;;;;;19.45;100.00;96077.81;1650893;85;20964;-82
2022/08/21 07:02:56;;;;;;;9.23;8.25;;;;;;;19.42;100.00;96080.94;1641894;86;21399;-82
2022/08/21 07:05:25;;;;;;;8.95;8.18;;;;;;;19.40;100.00;96078.55;1660947;86;21131;-82
2022/08/21 07:07:50;;;;;;;8.05;7.33;;;;;;;19.43;100.00;96078.05;1641242;86;20947;-82
2022/08/21 07:10:18;;;;;;;7.62;6.17;;;;;;;19.47;100.00;96076.52;1653659;85;21079;-82
2022/08/21 07:12:44;;;;;;;6.85;4.83;;;;;;;19.43;100.00;96088.59;1662793;86;20948;-82
2022/08/21 07:15:10;;;;;;;6.37;4.67;;;;;;;19.39;100.00;96094.08;1655728;84;21035;-82
2022/08/21 07:17:36;;;;;;;4.83;4.42;;;;;;;19.36;100.00;96093.26;1628874;87;21014;-82
2022/08/21 07:20:04;;;;;;;5.10;4.60;;;;;;;19.36;100.00;96087.98;1654302;86;20940;-82
2022/08/21 07:22:30;;;;;;;5.45;4.30;;;;;;;19.38;100.00;96094.33;1654684;86;20943;-81
2022/08/21 07:24:56;;;;;;;5.15;4.62;;;;;;;19.33;100.00;96094.24;1650274;86;21012;-82
2022/08/21 07:27:21;;;;;;;5.78;4.15;;;;;;;19.31;100.00;96098.44;1646626;85;20999;-82
2022/08/21 07:29:47;;;;;;;5.47;4.97;;;;;;;19.27;100.00;96101.81;1654774;86;20988;-82
2022/08/21 07:32:14;;;;;;;6.20;4.53;;;;;;;19.19;100.00;96101.17;1640718;86;20999;-82
2022/08/21 07:34:41;;;;;;;4.87;4.37;;;;;;;19.21;100.00;96105.42;1653989;86;21109;-82
2022/08/21 07:37:07;;;;;;;4.40;4.00;;;;;;;19.24;100.00;96114.16;1645795;87;21056;-82
2022/08/21 07:39:33;;;;;;;4.12;3.80;;;;;;;19.26;100.00;96118.13;1645671;85;21090;-82
2022/08/21 07:41:59;;;;;;;3.60;3.10;;;;;;;19.31;100.00;96116.08;1679528;83;21016;-82
2022/08/21 07:44:24;;;;;;;3.33;2.90;;;;;;;19.31;100.00;96122.67;1678895;84;21060;-83
2022/08/21 07:46:50;;;;;;;3.90;3.50;;;;;;;19.29;100.00;96128.70;1691519;83;21009;-82
2022/08/21 07:49:16;;;;;;;4.67;2.80;;;;;;;19.24;100.00;96123.38;1689662;83;20964;-82
2022/08/21 07:51:42;;;;;;;3.20;2.67;;;;;;;19.12;100.00;96122.94;1692996;83;20946;-83
2022/08/21 07:54:08;;;;;;;2.62;1.75;;;;;;;19.09;100.00;96121.31;1691786;83;21020;-83
2022/08/21 07:56:34;;;;;;;3.55;1.40;;;;;;;19.01;100.00;96119.88;1688106;83;20972;-83
2022/08/21 07:58:59;;;;;;;1.60;1.17;;;;;;;19.00;100.00;96124.86;1692912;83;21382;-83
2022/08/21 08:01:25;;;;;;;3.27;1.10;;;;;;;18.95;100.00;96130.06;1684297;83;21053;-83
2022/08/21 08:03:51;;;;;;;1.65;1.15;;;;;;;18.89;100.00;96133.66;1690936;84;21076;-82
2022/08/21 08:06:19;;;;;;;3.37;1.62;;;;;;;18.86;100.00;96130.97;1692960;83;21474;-83
2022/08/21 08:08:45;;;;;;;2.55;1.15;;;;;;;18.84;100.00;96140.94;1687335;83;21003;-83
2022/08/21 08:11:11;;;;;;;3.95;1.70;;;;;;;18.81;100.00;96144.05;1672394;83;21000;-82
2022/08/21 08:13:41;;;;;;;4.45;1.90;;;;;;;18.81;100.00;96145.37;1698291;83;20946;-82
2022/08/21 08:16:07;;;;;;;3.77;2.45;;;;;;;18.82;100.00;96143.02;1641623;86;21001;-83
2022/08/21 08:18:33;;;;;;;2.75;1.57;;;;;;;18.81;100.00;96138.80;1687567;83;21048;-83
2022/08/21 08:20:59;;;;;;;3.25;1.52;;;;;;;18.84;100.00;96140.14;1683377;84;20996;-82
2022/08/21 08:23:25;;;;;;;3.58;1.30;;;;;;;18.83;100.00;96139.86;1674199;84;20964;-82
2022/08/21 08:25:51;;;;;;;3.40;1.37;;;;;;;18.77;100.00;96134.25;1670840;84;20968;-83
2022/08/21 08:28:17;;;;;;;2.08;1.40;;;;;;;18.78;100.00;96140.59;1661768;83;21398;-83
2022/08/21 08:30:42;;;;;;;3.37;1.57;;;;;;;18.78;100.00;96137.95;1691897;83;20960;-83
2022/08/21 08:33:08;;;;;;;3.35;1.72;;;;;;;18.78;100.00;96141.11;1683659;83;21045;-83
2022/08/21 08:35:34;;;;;;;2.40;1.37;;;;;;;18.80;100.00;96139.03;1689987;83;21335;-83
2022/08/21 08:38:00;;;;;;;2.30;1.50;;;;;;;18.81;100.00;96136.16;1662547;85;21091;-82
2022/08/21 08:40:46;;;;;;;3.83;1.47;;;;;;;18.79;100.00;96137.44;1655694;84;21031;-84
2022/08/21 08:43:13;;;;;;;2.20;1.65;;;;;;;18.77;100.00;96137.68;1670369;85;21105;-85
2022/08/21 08:45:40;;;;;;;3.80;1.62;;;;;;;18.79;100.00;96142.70;1675313;84;21003;-84
2022/08/21 08:48:08;;;;;;;3.02;1.30;;;;;;;18.71;100.00;96141.77;1664026;83;21029;-84
2022/08/21 08:50:45;;;;;;;2.52;1.10;;;;;;;18.66;100.00;96148.27;1661321;82;21009;-85
2022/08/21 08:53:18;;;;;;;2.90;1.50;;;;;;;18.64;100.00;96141.14;1673051;83;20944;-84
2022/08/21 08:55:44;;;;;;;3.60;1.60;;;;;;;18.57;100.00;96146.02;1665017;85;21107;-84
2022/08/21 08:58:31;;;;;;;1.75;1.20;;;;;;;18.51;100.00;96146.15;1681625;85;21001;-84
2022/08/21 09:00:57;;;;;;;2.25;1.20;;;;;;;18.54;100.00;96150.41;1673499;84;21066;-84
2022/08/21 09:03:23;;;;;;;2.17;1.70;;;;;;;18.57;100.00;96151.80;1672474;82;21043;-84
2022/08/21 09:06:01;;;;;;;2.30;1.62;;;;;;;18.56;100.00;96144.94;1655376;84;21047;-84
2022/08/21 09:08:53;;;;;;;2.62;1.92;;;;;;;18.56;100.00;96151.00;1659469;85;21027;-85
2022/08/21 09:25:29;;;;;;;5.65;4.83;;;;;;;18.74;100.00;96153.95;1712116;80;21070;-83
2022/08/21 09:35:57;;;;;;;7.37;5.47;;;;;;;18.78;100.00;96151.12;1763577;79;21045;-85
2022/08/21 09:38:33;;;;;;;5.30;4.60;;;;;;;18.81;100.00;96145.89;1749132;79;21131;-85
2022/08/21 10:00:29;;;;;;;7.15;5.37;;;;;;;18.77;100.00;96148.73;1684086;80;21092;-86
2022/08/21 10:03:13;;;;;;;6.85;5.67;;;;;;;18.80;100.00;96149.56;1662279;85;22131;-85
2022/08/21 10:05:39;;;;;;;7.50;5.33;;;;;;;18.88;100.00;96151.30;1657177;84;21096;-84
2022/08/21 10:59:38;;;;;;;1.07;0.65;;;;;;;18.84;100.00;96166.47;1675955;79;21104;-84
2022/08/21 11:02:10;;;;;;;1.52;0.50;;;;;;;18.81;100.00;96160.37;1670905;84;20967;-87
2022/08/21 11:04:53;;;;;;;0.98;0.65;;;;;;;18.76;100.00;96160.30;1671499;86;21127;-86
2022/08/21 11:07:48;;;;;;;0.90;0.68;;;;;;;18.77;100.00;96162.69;1665203;85;20928;-86
2022/08/21 11:10:27;;;;;;;1.95;0.53;;;;;;;18.69;100.00;96168.33;1672589;85;21290;-85
2022/08/21 11:13:01;;;;;;;0.82;0.60;;;;;;;18.58;100.00;96168.66;1666865;86;21070;-84
2022/08/21 11:15:56;;;;;;;0.72;0.57;;;;;;;18.52;100.00;96165.64;1656822;86;21076;-85
2022/08/21 11:18:43;;;;;;;1.72;0.62;;;;;;;18.43;100.00;96164.96;1661935;84;21013;-83
2022/08/21 11:21:31;;;;;;;0.42;0.30;;;;;;;18.39;100.00;96159.90;1672514;85;21019;-84
2022/08/21 11:24:06;;;;;;;0.72;0.62;;;;;;;18.36;100.00;96160.34;1653526;85;21028;-84
2022/08/21 11:26:40;;;;;;;0.80;0.60;;;;;;;18.32;100.00;96157.39;1665169;86;20970;-84
2022/08/21 11:29:18;;;;;;;2.08;0.65;;;;;;;18.35;100.00;96159.55;1657263;84;21031;-85
2022/08/21 11:32:14;;;;;;;0.60;0.57;;;;;;;18.36;100.00;96162.98;1663622;85;20965;-85
2022/08/21 11:35:03;;;;;;;1.20;0.80;;;;;;;18.30;100.00;96160.27;1664560;85;21356;-84
2022/08/21 11:37:52;;;;;;;1.25;0.80;;;;;;;18.32;100.00;96155.28;1647762;84;21398;-84
2022/08/21 11:41:08;;;;;;;0.98;0.68;;;;;;;18.34;100.00;96159.78;1662393;85;21042;-85
2022/08/21 11:43:47;;;;;;;0.80;0.70;;;;;;;18.35;100.00;96155.60;1652463;85;21398;-85
2022/08/21 11:46:48;;;;;;;1.20;0.80;;;;;;;18.36;100.00;96158.52;1646600;86;21046;-84
2022/08/21 11:49:32;;;;;;;0.83;0.77;;;;;;;18.36;100.00;96158.52;1657422;84;21044;-85
2022/08/21 11:52:26;;;;;;;2.22;0.93;;;;;;;18.34;100.00;96163.21;1665088;85;21051;-85
2022/08/21 11:55:09;;;;;;;1.10;1.00;;;;;;;18.36;100.00;96165.09;1669333;84;21059;-84
2022/08/21 11:57:55;;;;;;;2.35;1.20;;;;;;;18.29;100.00;96161.30;1662715;83;21390;-83
2022/08/21 12:00:54;;;;;;;2.05;1.10;;;;;;;18.34;100.00;96165.05;1661349;83;21016;-83
2022/08/21 12:03:33;;;;;;;1.45;1.17;;;;;;;18.35;100.00;96162.70;1666165;83;20972;-83
2022/08/21 12:06:09;;;;;;;1.92;1.10;;;;;;;18.34;100.00;96156.64;1685127;83;20992;-84
2022/08/21 12:08:38;;;;;;;2.52;1.60;;;;;;;18.38;100.00;96154.33;1685138;83;21074;-83
2022/08/21 12:11:07;;;;;;;1.85;1.00;;;;;;;18.42;100.00;96151.02;1677410;82;20968;-83
2022/08/21 12:13:43;;;;;;;2.25;1.32;;;;;;;18.44;100.00;96157.34;1643849;83;20992;-83
2022/08/21 12:16:13;;;;;;;2.20;1.02;;;;;;;18.51;100.00;96155.36;1669163;84;21433;-83
2022/08/21 12:18:39;;;;;;;1.30;1.15;;;;;;;18.52;100.00;96155.12;1685820;83;21098;-83
2022/08/21 12:21:24;;;;;;;1.40;1.30;;;;;;;18.53;100.00;96152.77;1693187;83;21391;-83
2022/08/21 12:24:16;;;;;;;1.32;1.00;;;;;;;18.57;100.00;96159.69;1676280;82;21046;-83
2022/08/21 12:26:55;;;;;;;;;;;;;;;18.60;100.00;96158.69;1677836;82;21024;-83
2022/08/21 12:29:31;;;;;;;1.40;1.20;;;;;;;18.62;100.00;96155.02;1668537;82;20130;-83
2022/08/21 12:32:16;;;;;;;0.95;0.90;;;;;;;18.66;100.00;96153.53;1643511;84;21040;-83
2022/08/21 12:34:56;;;;;;;1.72;0.90;;;;;;;18.65;100.00;96150.11;1642828;86;21422;-83
2022/08/21 12:37:39;;;;;;;1.45;1.00;;;;;;;18.57;100.00;96147.33;1616082;86;21662;-83
2022/08/21 12:40:16;;;;;;;1.27;1.00;;;;;;;18.56;100.00;96150.20;1663270;84;20978;-83
2022/08/21 12:42:46;;;;;;;1.25;1.15;;;;;;;18.58;100.00;96149.45;1616252;86;21419;-82
2022/08/21 12:45:31;;;;;;;1.62;1.00;;;;;;;18.63;100.00;96145.60;1627021;86;21052;-83
2022/08/21 12:48:02;;;;;;;1.05;0.88;;;;;;;18.56;100.00;96149.69;1642295;85;21394;-83
2022/08/21 12:50:53;;;;;;;1.07;0.80;;;;;;;18.50;100.00;96152.45;1649215;85;20977;-83
2022/08/21 12:53:34;;;;;;;1.00;0.87;;;;;;;18.39;100.00;96155.44;1636810;86;21062;-82
2022/08/21 12:56:04;;;;;;;1.47;1.10;;;;;;;18.24;100.00;96155.16;1619008;86;21465;-83
2022/08/21 12:58:31;;;;;;;1.00;0.80;;;;;;;18.07;100.00;96156.94;1609461;85;21038;-83
2022/08/21 13:01:25;;;;;;;0.82;0.60;;;;;;;17.91;100.00;96159.78;1628517;85;20957;-82
2022/08/21 13:03:53;;;;;;;1.15;0.60;;;;;;;17.83;100.00;96161.45;1624282;85;20991;-83